South Natick, Massachusetts
Current Conditions -  °F | °C
As of 7:53 PM on Saturday 22 Nov 2014 (Local Time) from KOWD Reporting Station
Few Clouds Few Clouds  
Wind Chill: 34°   Ceiling: Unl
Heat Index: 39°   Visibility: 10mi
Dew Point: 19°   Wind: 7mph
Humidity: 45%   Direction: 210°SSW
Pressure: 30.11"   Gusts: NA
Location:  42.2868°N, 71.3531°W
Report Text: KOWD 230053Z AUTO 21006KT 10SM FEW050 04/M07 A3011 RMK AO2 SLP197 T00391072
Loading
Personal Weather Stations






























Interactive Weather Map New forecast layout! Learn more

10-Day Weather Forecast

Advertisements
Track Severe Weather on mobile